sensor_id;sensor_type;location;lat;lon;timestamp;pressure;altitude;pressure_sealevel;temperature;humidity
16806;BME280;8520;50.102;20.010;2022-09-03T00:02:26;98522.50;;;15.87;59.75
16806;BME280;8520;50.102;20.010;2022-09-03T00:05:23;98522.53;;;15.92;59.58
16806;BME280;8520;50.102;20.010;2022-09-03T00:08:15;98515.19;;;15.95;59.37
16806;BME280;8520;50.102;20.010;2022-09-03T00:11:11;98518.22;;;15.86;59.35
16806;BME280;8520;50.102;20.010;2022-09-03T00:14:05;98518.44;;;15.77;59.70
16806;BME280;8520;50.102;20.010;2022-09-03T00:16:57;98522.22;;;15.68;59.78
16806;BME280;8520;50.102;20.010;2022-09-03T00:19:55;98516.66;;;15.68;60.02
16806;BME280;8520;50.102;20.010;2022-09-03T00:22:47;98519.16;;;15.55;60.21
16806;BME280;8520;50.102;20.010;2022-09-03T00:25:39;98516.13;;;15.58;60.02
16806;BME280;8520;50.102;20.010;2022-09-03T00:28:34;98516.56;;;15.40;60.89
16806;BME280;8520;50.102;20.010;2022-09-03T00:31:29;98517.34;;;15.52;60.29
16806;BME280;8520;50.102;20.010;2022-09-03T00:34:23;98510.56;;;15.58;60.13
16806;BME280;8520;50.102;20.010;2022-09-03T00:37:13;98510.56;;;15.58;60.17
16806;BME280;8520;50.102;20.010;2022-09-03T00:40:04;98501.25;;;15.67;59.99
16806;BME280;8520;50.102;20.010;2022-09-03T00:43:08;98503.78;;;15.65;59.96
16806;BME280;8520;50.102;20.010;2022-09-03T00:46:06;98502.53;;;15.66;60.51
16806;BME280;8520;50.102;20.010;2022-09-03T00:49:18;98503.50;;;15.63;60.54
16806;BME280;8520;50.102;20.010;2022-09-03T00:52:19;98493.94;;;15.70;60.54
16806;BME280;8520;50.102;20.010;2022-09-03T00:55:21;98502.50;;;15.60;60.47
16806;BME280;8520;50.102;20.010;2022-09-03T00:58:23;98492.91;;;15.61;60.55
16806;BME280;8520;50.102;20.010;2022-09-03T01:01:17;98489.81;;;15.43;60.96
16806;BME280;8520;50.102;20.010;2022-09-03T01:04:24;98493.13;;;15.47;60.85
16806;BME280;8520;50.102;20.010;2022-09-03T01:07:22;98493.34;;;15.38;61.13
16806;BME280;8520;50.102;20.010;2022-09-03T01:10:25;98498.91;;;15.43;61.40
16806;BME280;8520;50.102;20.010;2022-09-03T01:13:20;98494.34;;;15.34;61.63
16806;BME280;8520;50.102;20.010;2022-09-03T01:16:20;98497.38;;;15.36;61.78
16806;BME280;8520;50.102;20.010;2022-09-03T01:19:33;98497.88;;;15.35;61.93
16806;BME280;8520;50.102;20.010;2022-09-03T01:22:55;98499.81;;;15.18;62.13
16806;BME280;8520;50.102;20.010;2022-09-03T01:25:52;98500.38;;;15.27;62.01
16806;BME280;8520;50.102;20.010;2022-09-03T01:28:53;98505.13;;;15.16;62.44
16806;BME280;8520;50.102;20.010;2022-09-03T01:31:55;98505.16;;;15.21;62.32
16806;BME280;8520;50.102;20.010;2022-09-03T01:34:51;98503.66;;;15.31;62.34
16806;BME280;8520;50.102;20.010;2022-09-03T01:37:52;98503.19;;;15.44;62.13
16806;BME280;8520;50.102;20.010;2022-09-03T01:40:51;98501.44;;;15.41;62.45
16806;BME280;8520;50.102;20.010;2022-09-03T01:43:51;98506.50;;;15.48;62.20
16806;BME280;8520;50.102;20.010;2022-09-03T01:46:49;98505.97;;;15.44;62.35
16806;BME280;8520;50.102;20.010;2022-09-03T01:49:51;98496.13;;;15.43;62.69
16806;BME280;8520;50.102;20.010;2022-09-03T01:52:48;98498.63;;;15.35;63.18
16806;BME280;8520;50.102;20.010;2022-09-03T01:55:53;98496.56;;;15.25;63.39
16806;BME280;8520;50.102;20.010;2022-09-03T01:58:50;98493.31;;;15.32;63.20
16806;BME280;8520;50.102;20.010;2022-09-03T02:01:52;98494.88;;;15.39;63.31
16806;BME280;8520;50.102;20.010;2022-09-03T02:04:55;98494.84;;;15.33;63.46
16806;BME280;8520;50.102;20.010;2022-09-03T02:07:46;98496.59;;;15.36;63.48
16806;BME280;8520;50.102;20.010;2022-09-03T02:10:39;98501.06;;;15.11;64.21
16806;BME280;8520;50.102;20.010;2022-09-03T02:13:31;98504.06;;;15.07;64.35
16806;BME280;8520;50.102;20.010;2022-09-03T02:16:27;98506.59;;;15.05;64.45
16806;BME280;8520;50.102;20.010;2022-09-03T02:19:17;98503.59;;;15.15;64.46
16806;BME280;8520;50.102;20.010;2022-09-03T02:22:06;98505.13;;;15.10;64.61
16806;BME280;8520;50.102;20.010;2022-09-03T02:24:54;98500.53;;;15.07;64.47
16806;BME280;8520;50.102;20.010;2022-09-03T02:27:43;98507.34;;;15.00;65.10
16806;BME280;8520;50.102;20.010;2022-09-03T02:30:32;98500.78;;;15.03;64.67
16806;BME280;8520;50.102;20.010;2022-09-03T02:33:22;98509.59;;;14.96;65.09
16806;BME280;8520;50.102;20.010;2022-09-03T02:36:13;98510.53;;;14.82;65.65
16806;BME280;8520;50.102;20.010;2022-09-03T02:39:04;98515.78;;;14.80;66.05
16806;BME280;8520;50.102;20.010;2022-09-03T02:41:54;98508.97;;;14.75;66.16
16806;BME280;8520;50.102;20.010;2022-09-03T02:44:47;98501.38;;;14.70;66.36
16806;BME280;8520;50.102;20.010;2022-09-03T02:47:38;98500.91;;;14.77;66.15
16806;BME280;8520;50.102;20.010;2022-09-03T02:50:31;98511.44;;;14.68;66.80
16806;BME280;8520;50.102;20.010;2022-09-03T02:53:19;98509.88;;;14.56;67.47
16806;BME280;8520;50.102;20.010;2022-09-03T02:56:08;98505.41;;;14.64;67.48
16806;BME280;8520;50.102;20.010;2022-09-03T02:58:57;98502.56;;;14.58;67.86
16806;BME280;8520;50.102;20.010;2022-09-03T03:01:46;98504.53;;;14.46;68.26
16806;BME280;8520;50.102;20.010;2022-09-03T03:04:34;98512.19;;;14.31;69.38
16806;BME280;8520;50.102;20.010;2022-09-03T03:07:24;98503.94;;;14.42;69.15
16806;BME280;8520;50.102;20.010;2022-09-03T03:10:12;98514.63;;;14.49;68.95
16806;BME280;8520;50.102;20.010;2022-09-03T03:13:01;98517.31;;;14.44;69.49
16806;BME280;8520;50.102;20.010;2022-09-03T03:15:49;98518.31;;;14.41;69.65
16806;BME280;8520;50.102;20.010;2022-09-03T03:18:38;98525.59;;;14.38;70.25
16806;BME280;8520;50.102;20.010;2022-09-03T03:21:26;98521.81;;;14.36;70.14
16806;BME280;8520;50.102;20.010;2022-09-03T03:24:16;98524.78;;;14.32;70.58
16806;BME280;8520;50.102;20.010;2022-09-03T03:27:04;98519.22;;;14.27;70.83
16806;BME280;8520;50.102;20.010;2022-09-03T03:29:54;98516.47;;;14.32;70.99
16806;BME280;8520;50.102;20.010;2022-09-03T03:32:44;98517.41;;;14.23;70.87
16806;BME280;8520;50.102;20.010;2022-09-03T03:35:32;98509.66;;;14.28;71.45
16806;BME280;8520;50.102;20.010;2022-09-03T03:38:20;98515.22;;;14.33;71.15
16806;BME280;8520;50.102;20.010;2022-09-03T03:41:11;98515.47;;;14.35;71.30
16806;BME280;8520;50.102;20.010;2022-09-03T03:44:03;98517.75;;;14.31;71.60
16806;BME280;8520;50.102;20.010;2022-09-03T03:46:51;98513.53;;;14.41;71.71
16806;BME280;8520;50.102;20.010;2022-09-03T03:49:39;98512.50;;;14.39;71.66
16806;BME280;8520;50.102;20.010;2022-09-03T03:52:28;98521.84;;;14.41;71.51
16806;BME280;8520;50.102;20.010;2022-09-03T03:55:16;98511.31;;;14.45;71.34
16806;BME280;8520;50.102;20.010;2022-09-03T03:58:06;98518.91;;;14.50;71.45
16806;BME280;8520;50.102;20.010;2022-09-03T04:00:54;98517.47;;;14.29;72.18
16806;BME280;8520;50.102;20.010;2022-09-03T04:03:43;98516.75;;;14.34;72.79
16806;BME280;8520;50.102;20.010;2022-09-03T04:06:32;98523.34;;;14.37;72.19
16806;BME280;8520;50.102;20.010;2022-09-03T04:09:20;98520.63;;;14.16;73.40
16806;BME280;8520;50.102;20.010;2022-09-03T04:12:08;98516.41;;;14.21;73.14
16806;BME280;8520;50.102;20.010;2022-09-03T04:14:58;98523.88;;;14.09;73.87
16806;BME280;8520;50.102;20.010;2022-09-03T04:17:46;98523.03;;;14.29;73.50
16806;BME280;8520;50.102;20.010;2022-09-03T04:20:35;98518.91;;;14.19;74.28
16806;BME280;8520;50.102;20.010;2022-09-03T04:23:23;98517.66;;;14.51;73.09
16806;BME280;8520;50.102;20.010;2022-09-03T04:26:13;98515.13;;;14.48;73.82
16806;BME280;8520;50.102;20.010;2022-09-03T04:29:03;98514.69;;;14.61;73.75
16806;BME280;8520;50.102;20.010;2022-09-03T04:31:53;98512.94;;;14.63;73.95
16806;BME280;8520;50.102;20.010;2022-09-03T04:34:59;98518.25;;;14.67;74.27
16806;BME280;8520;50.102;20.010;2022-09-03T04:37:47;98510.75;;;14.73;74.02
16806;BME280;8520;50.102;20.010;2022-09-03T04:40:36;98517.72;;;14.63;73.93
16806;BME280;8520;50.102;20.010;2022-09-03T04:43:24;98515.75;;;14.69;74.27
16806;BME280;8520;50.102;20.010;2022-09-03T04:46:12;98518.91;;;14.93;73.46
16806;BME280;8520;50.102;20.010;2022-09-03T04:49:05;98516.13;;;14.93;73.26
16806;BME280;8520;50.102;20.010;2022-09-03T04:51:55;98519.88;;;14.85;73.87
16806;BME280;8520;50.102;20.010;2022-09-03T04:54:43;98528.44;;;14.87;73.94
16806;BME280;8520;50.102;20.010;2022-09-03T04:57:33;98528.78;;;15.05;73.41
16806;BME280;8520;50.102;20.010;2022-09-03T05:00:24;98529.59;;;15.12;73.42
16806;BME280;8520;50.102;20.010;2022-09-03T05:03:12;98529.88;;;15.25;73.05
16806;BME280;8520;50.102;20.010;2022-09-03T05:06:02;98532.44;;;15.34;72.47
16806;BME280;8520;50.102;20.010;2022-09-03T05:08:54;98546.31;;;15.28;73.11
16806;BME280;8520;50.102;20.010;2022-09-03T05:11:43;98542.28;;;15.29;73.63
16806;BME280;8520;50.102;20.010;2022-09-03T05:14:32;98543.50;;;15.23;74.00
16806;BME280;8520;50.102;20.010;2022-09-03T05:17:21;98536.25;;;15.36;74.25
16806;BME280;8520;50.102;20.010;2022-09-03T05:20:09;98540.47;;;15.26;74.38
16806;BME280;8520;50.102;20.010;2022-09-03T05:23:01;98544.81;;;15.27;74.41
16806;BME280;8520;50.102;20.010;2022-09-03T05:25:54;98545.81;;;15.35;74.43
16806;BME280;8520;50.102;20.010;2022-09-03T05:28:44;98561.03;;;15.51;74.34
16806;BME280;8520;50.102;20.010;2022-09-03T05:31:34;98555.81;;;15.64;73.83
16806;BME280;8520;50.102;20.010;2022-09-03T05:34:24;98560.84;;;15.72;73.63
16806;BME280;8520;50.102;20.010;2022-09-03T05:37:12;98554.09;;;15.84;73.22
16806;BME280;8520;50.102;20.010;2022-09-03T05:40:03;98562.16;;;15.82;72.70
16806;BME280;8520;50.102;20.010;2022-09-03T05:42:55;98552.81;;;15.74;73.30
16806;BME280;8520;50.102;20.010;2022-09-03T05:45:45;98553.03;;;15.70;73.02
16806;BME280;8520;50.102;20.010;2022-09-03T05:48:36;98557.84;;;15.81;73.30
16806;BME280;8520;50.102;20.010;2022-09-03T05:51:25;98557.09;;;15.80;73.43
16806;BME280;8520;50.102;20.010;2022-09-03T05:54:13;98543.72;;;15.79;73.74
16806;BME280;8520;50.102;20.010;2022-09-03T05:57:03;98544.47;;;15.90;74.07
16806;BME280;8520;50.102;20.010;2022-09-03T05:59:51;98534.63;;;15.84;74.41
16806;BME280;8520;50.102;20.010;2022-09-03T06:02:39;98542.97;;;15.89;74.24
16806;BME280;8520;50.102;20.010;2022-09-03T06:05:29;98530.31;;;15.77;74.48
16806;BME280;8520;50.102;20.010;2022-09-03T06:08:17;98522.25;;;16.07;74.43
16806;BME280;8520;50.102;20.010;2022-09-03T06:11:06;98523.78;;;16.19;73.88
16806;BME280;8520;50.102;20.010;2022-09-03T06:13:58;98524.28;;;16.35;73.87
16806;BME280;8520;50.102;20.010;2022-09-03T06:16:48;98530.06;;;16.65;73.25
16806;BME280;8520;50.102;20.010;2022-09-03T06:19:39;98537.16;;;16.55;73.42
16806;BME280;8520;50.102;20.010;2022-09-03T06:22:27;98540.97;;;16.74;73.31
16806;BME280;8520;50.102;20.010;2022-09-03T06:25:17;98540.91;;;16.91;72.96
16806;BME280;8520;50.102;20.010;2022-09-03T06:28:05;98549.00;;;16.89;73.00
16806;BME280;8520;50.102;20.010;2022-09-03T06:30:58;98550.81;;;16.81;73.35
16806;BME280;8520;50.102;20.010;2022-09-03T06:33:47;98560.38;;;16.96;73.35
16806;BME280;8520;50.102;20.010;2022-09-03T06:36:36;98554.22;;;17.26;72.87
16806;BME280;8520;50.102;20.010;2022-09-03T06:39:24;98552.91;;;17.38;72.25
16806;BME280;8520;50.102;20.010;2022-09-03T06:42:13;98556.19;;;17.37;72.53
16806;BME280;8520;50.102;20.010;2022-09-03T06:45:01;98558.13;;;17.58;71.97
16806;BME280;8520;50.102;20.010;2022-09-03T06:47:52;98555.56;;;17.60;71.98
16806;BME280;8520;50.102;20.010;2022-09-03T06:50:41;98539.09;;;17.62;71.76
16806;BME280;8520;50.102;20.010;2022-09-03T06:53:31;98552.94;;;17.85;71.56
16806;BME280;8520;50.102;20.010;2022-09-03T06:56:21;98550.09;;;17.90;71.26
16806;BME280;8520;50.102;20.010;2022-09-03T06:59:13;98554.47;;;18.22;70.65
16806;BME280;8520;50.102;20.010;2022-09-03T07:02:02;98550.22;;;18.09;70.79
16806;BME280;8520;50.102;20.010;2022-09-03T07:04:52;98541.75;;;18.26;70.16
16806;BME280;8520;50.102;20.010;2022-09-03T07:07:41;98544.75;;;18.28;69.98
16806;BME280;8520;50.102;20.010;2022-09-03T07:10:31;98548.81;;;18.27;69.74
16806;BME280;8520;50.102;20.010;2022-09-03T07:13:23;98557.19;;;18.27;70.63
16806;BME280;8520;50.102;20.010;2022-09-03T07:16:13;98559.94;;;18.68;69.77
16806;BME280;8520;50.102;20.010;2022-09-03T07:19:03;98563.47;;;18.69;69.36
16806;BME280;8520;50.102;20.010;2022-09-03T07:21:53;98567.50;;;18.98;68.20
16806;BME280;8520;50.102;20.010;2022-09-03T07:24:41;98564.84;;;18.57;69.48
16806;BME280;8520;50.102;20.010;2022-09-03T07:27:33;98566.97;;;18.75;68.65
16806;BME280;8520;50.102;20.010;2022-09-03T07:30:22;98578.19;;;18.69;69.31
16806;BME280;8520;50.102;20.010;2022-09-03T07:33:12;98580.66;;;18.73;68.80
16806;BME280;8520;50.102;20.010;2022-09-03T07:36:01;98581.97;;;18.96;68.46
16806;BME280;8520;50.102;20.010;2022-09-03T07:38:54;98576.50;;;18.55;68.32
16806;BME280;8520;50.102;20.010;2022-09-03T07:41:43;98579.97;;;18.91;68.27
16806;BME280;8520;50.102;20.010;2022-09-03T07:44:32;98571.00;;;19.04;67.97
16806;BME280;8520;50.102;20.010;2022-09-03T07:47:21;98576.41;;;18.96;67.97
16806;BME280;8520;50.102;20.010;2022-09-03T07:50:13;98571.16;;;18.87;67.48
16806;BME280;8520;50.102;20.010;2022-09-03T07:53:02;98571.78;;;18.99;67.18
16806;BME280;8520;50.102;20.010;2022-09-03T07:55:52;98581.09;;;19.31;67.00
16806;BME280;8520;50.102;20.010;2022-09-03T07:58:41;98585.25;;;19.44;66.28
16806;BME280;8520;50.102;20.010;2022-09-03T08:01:30;98578.84;;;19.06;66.87
16806;BME280;8520;50.102;20.010;2022-09-03T08:04:19;98584.69;;;19.26;66.27
16806;BME280;8520;50.102;20.010;2022-09-03T08:07:09;98588.91;;;19.14;66.14
16806;BME280;8520;50.102;20.010;2022-09-03T08:09:57;98588.88;;;18.90;66.79
16806;BME280;8520;50.102;20.010;2022-09-03T08:12:47;98593.47;;;19.36;66.31
16806;BME280;8520;50.102;20.010;2022-09-03T08:15:35;98595.03;;;19.56;65.22
16806;BME280;8520;50.102;20.010;2022-09-03T08:18:26;98594.75;;;19.97;64.67
16806;BME280;8520;50.102;20.010;2022-09-03T08:21:24;98587.81;;;20.04;63.93
16806;BME280;8520;50.102;20.010;2022-09-03T08:24:15;98583.25;;;20.01;64.33
16806;BME280;8520;50.102;20.010;2022-09-03T08:27:04;98585.47;;;19.89;63.95
16806;BME280;8520;50.102;20.010;2022-09-03T08:29:53;98584.47;;;20.05;64.07
16806;BME280;8520;50.102;20.010;2022-09-03T08:32:42;98588.78;;;19.87;64.65
16806;BME280;8520;50.102;20.010;2022-09-03T08:35:30;98585.59;;;19.97;64.15
16806;BME280;8520;50.102;20.010;2022-09-03T08:38:20;98583.31;;;20.14;64.12
16806;BME280;8520;50.102;20.010;2022-09-03T08:41:12;98589.53;;;20.07;63.96
16806;BME280;8520;50.102;20.010;2022-09-03T08:44:09;98585.38;;;20.13;64.01
16806;BME280;8520;50.102;20.010;2022-09-03T08:47:06;98571.00;;;20.36;63.53
16806;BME280;8520;50.102;20.010;2022-09-03T08:49:59;98571.59;;;20.48;62.99
16806;BME280;8520;50.102;20.010;2022-09-03T08:52:51;98581.44;;;20.54;62.56
16806;BME280;8520;50.102;20.010;2022-09-03T08:55:49;98586.63;;;20.63;62.81
16806;BME280;8520;50.102;20.010;2022-09-03T08:58:39;98588.72;;;20.89;62.15
16806;BME280;8520;50.102;20.010;2022-09-03T09:01:42;98594.19;;;20.82;62.11
16806;BME280;8520;50.102;20.010;2022-09-03T09:04:46;98594.97;;;20.95;61.92
16806;BME280;8520;50.102;20.010;2022-09-03T09:07:45;98592.19;;;20.95;61.28
16806;BME280;8520;50.102;20.010;2022-09-03T09:10:42;98585.72;;;21.00;61.24
16806;BME280;8520;50.102;20.010;2022-09-03T09:13:35;98598.56;;;20.32;62.42
16806;BME280;8520;50.102;20.010;2022-09-03T09:16:33;98599.13;;;20.62;61.70
16806;BME280;8520;50.102;20.010;2022-09-03T09:19:34;98596.78;;;20.93;61.07
16806;BME280;8520;50.102;20.010;2022-09-03T09:22:30;98596.56;;;20.91;61.50
16806;BME280;8520;50.102;20.010;2022-09-03T09:25:22;98602.53;;;20.55;61.94
16806;BME280;8520;50.102;20.010;2022-09-03T09:28:16;98604.09;;;20.69;61.56
16806;BME280;8520;50.102;20.010;2022-09-03T09:31:09;98604.34;;;20.98;60.96
16806;BME280;8520;50.102;20.010;2022-09-03T09:34:01;98599.38;;;20.91;60.85
16806;BME280;8520;50.102;20.010;2022-09-03T09:36:53;98601.75;;;21.00;60.78
16806;BME280;8520;50.102;20.010;2022-09-03T09:39:54;98594.31;;;20.89;62.01
16806;BME280;8520;50.102;20.010;2022-09-03T09:42:43;98600.50;;;21.14;61.10
16806;BME280;8520;50.102;20.010;2022-09-03T09:45:32;98602.72;;;21.02;61.66
16806;BME280;8520;50.102;20.010;2022-09-03T09:48:23;98608.69;;;21.12;61.96
16806;BME280;8520;50.102;20.010;2022-09-03T09:51:19;98602.66;;;21.21;62.02
16806;BME280;8520;50.102;20.010;2022-09-03T09:54:12;98603.22;;;21.33;62.99
16806;BME280;8520;50.102;20.010;2022-09-03T09:57:06;98613.38;;;20.78;62.77
16806;BME280;8520;50.102;20.010;2022-09-03T10:00:03;98608.59;;;20.72;62.19
16806;BME280;8520;50.102;20.010;2022-09-03T10:02:57;98612.75;;;20.98;62.19
16806;BME280;8520;50.102;20.010;2022-09-03T10:05:57;98617.16;;;20.93;61.73
16806;BME280;8520;50.102;20.010;2022-09-03T10:08:48;98611.38;;;21.18;61.25
16806;BME280;8520;50.102;20.010;2022-09-03T10:11:37;98607.78;;;20.78;61.81
16806;BME280;8520;50.102;20.010;2022-09-03T10:14:31;98609.00;;;20.50;62.55
16806;BME280;8520;50.102;20.010;2022-09-03T10:17:26;98602.59;;;20.68;62.58
16806;BME280;8520;50.102;20.010;2022-09-03T10:20:30;98595.13;;;20.39;62.74
16806;BME280;8520;50.102;20.010;2022-09-03T10:23:22;98598.50;;;20.69;62.50
16806;BME280;8520;50.102;20.010;2022-09-03T10:26:12;98578.22;;;20.63;63.29
16806;BME280;8520;50.102;20.010;2022-09-03T10:29:04;98579.97;;;20.93;62.55
16806;BME280;8520;50.102;20.010;2022-09-03T10:32:05;98580.72;;;20.67;62.87
16806;BME280;8520;50.102;20.010;2022-09-03T10:35:05;98589.91;;;21.07;61.57
16806;BME280;8520;50.102;20.010;2022-09-03T10:38:06;98588.09;;;21.10;61.91
16806;BME280;8520;50.102;20.010;2022-09-03T10:41:07;98589.50;;;21.16;61.95
16806;BME280;8520;50.102;20.010;2022-09-03T10:44:12;98588.13;;;21.49;61.61
16806;BME280;8520;50.102;20.010;2022-09-03T10:47:17;98607.06;;;21.30;61.80
16806;BME280;8520;50.102;20.010;2022-09-03T10:50:12;98595.78;;;21.36;61.16
16806;BME280;8520;50.102;20.010;2022-09-03T10:53:09;98603.22;;;21.33;60.86
16806;BME280;8520;50.102;20.010;2022-09-03T10:56:02;98598.00;;;21.64;59.99
16806;BME280;8520;50.102;20.010;2022-09-03T10:59:04;98601.88;;;21.21;61.64
16806;BME280;8520;50.102;20.010;2022-09-03T11:02:05;98590.91;;;21.23;61.37
16806;BME280;8520;50.102;20.010;2022-09-03T11:05:06;98600.16;;;21.05;62.18
16806;BME280;8520;50.102;20.010;2022-09-03T11:08:00;98589.59;;;21.24;61.84
16806;BME280;8520;50.102;20.010;2022-09-03T11:10:54;98589.38;;;21.62;60.90
16806;BME280;8520;50.102;20.010;2022-09-03T11:13:47;98594.03;;;21.59;61.03
16806;BME280;8520;50.102;20.010;2022-09-03T11:16:39;98588.53;;;21.53;61.41
16806;BME280;8520;50.102;20.010;2022-09-03T11:19:33;98590.94;;;21.83;60.12
16806;BME280;8520;50.102;20.010;2022-09-03T11:22:25;98596.50;;;22.10;60.07
16806;BME280;8520;50.102;20.010;2022-09-03T11:25:19;98596.50;;;22.10;59.27
16806;BME280;8520;50.102;20.010;2022-09-03T11:28:15;98587.50;;;22.66;58.78
16806;BME280;8520;50.102;20.010;2022-09-03T11:31:17;98588.66;;;22.92;57.50
16806;BME280;8520;50.102;20.010;2022-09-03T11:34:12;98574.56;;;23.13;57.63
16806;BME280;8520;50.102;20.010;2022-09-03T11:37:18;98576.47;;;23.54;57.26
16806;BME280;8520;50.102;20.010;2022-09-03T11:40:13;98569.84;;;23.08;57.20
16806;BME280;8520;50.102;20.010;2022-09-03T11:43:12;98570.72;;;22.74;57.87
16806;BME280;8520;50.102;20.010;2022-09-03T11:46:04;98567.19;;;22.32;58.51
16806;BME280;8520;50.102;20.010;2022-09-03T11:49:09;98567.84;;;22.66;57.74
16806;BME280;8520;50.102;20.010;2022-09-03T11:52:00;98568.75;;;22.61;57.67
16806;BME280;8520;50.102;20.010;2022-09-03T11:54:49;98559.06;;;22.49;58.21
16806;BME280;8520;50.102;20.010;2022-09-03T11:57:41;98558.31;;;22.69;58.26
16806;BME280;8520;50.102;20.010;2022-09-03T12:00:29;98556.81;;;22.48;58.38
16806;BME280;8520;50.102;20.010;2022-09-03T12:03:23;98559.06;;;22.70;59.54
16806;BME280;8520;50.102;20.010;2022-09-03T12:09:46;98547.22;;;22.85;58.06
16806;BME280;8520;50.102;20.010;2022-09-03T12:12:47;98551.53;;;22.65;59.26
16806;BME280;8520;50.102;20.010;2022-09-03T12:16:21;98553.78;;;23.16;57.43
16806;BME280;8520;50.102;20.010;2022-09-03T12:19:19;98552.56;;;23.04;56.94
16806;BME280;8520;50.102;20.010;2022-09-03T12:22:12;98557.34;;;23.16;56.92
16806;BME280;8520;50.102;20.010;2022-09-03T12:25:07;98556.34;;;23.06;57.26
16806;BME280;8520;50.102;20.010;2022-09-03T12:28:00;98549.47;;;23.51;57.14
16806;BME280;8520;50.102;20.010;2022-09-03T12:30:50;98551.06;;;23.03;57.69
16806;BME280;8520;50.102;20.010;2022-09-03T12:33:40;98548.09;;;23.37;56.20
16806;BME280;8520;50.102;20.010;2022-09-03T12:36:36;98544.63;;;24.26;54.89
16806;BME280;8520;50.102;20.010;2022-09-03T12:39:27;98540.28;;;24.09;53.47
16806;BME280;8520;50.102;20.010;2022-09-03T12:42:36;98534.91;;;24.42;53.42
16806;BME280;8520;50.102;20.010;2022-09-03T12:45:26;98530.56;;;24.49;52.96
16806;BME280;8520;50.102;20.010;2022-09-03T12:48:34;98534.50;;;25.07;51.74
16806;BME280;8520;50.102;20.010;2022-09-03T12:51:33;98529.03;;;24.86;51.82
16806;BME280;8520;50.102;20.010;2022-09-03T12:54:49;98520.91;;;25.20;51.36
16806;BME280;8520;50.102;20.010;2022-09-03T12:57:42;98528.13;;;25.06;51.75
16806;BME280;8520;50.102;20.010;2022-09-03T13:00:37;98537.13;;;24.97;51.59
16806;BME280;8520;50.102;20.010;2022-09-03T13:03:32;98526.81;;;24.23;54.08
16806;BME280;8520;50.102;20.010;2022-09-03T13:06:25;98521.00;;;24.59;53.60
16806;BME280;8520;50.102;20.010;2022-09-03T13:09:19;98516.88;;;24.60;53.39
16806;BME280;8520;50.102;20.010;2022-09-03T13:12:20;98515.88;;;25.11;52.18
16806;BME280;8520;50.102;20.010;2022-09-03T13:15:16;98520.97;;;24.98;51.71
16806;BME280;8520;50.102;20.010;2022-09-03T13:18:18;98518.91;;;24.98;52.07
16806;BME280;8520;50.102;20.010;2022-09-03T13:21:15;98522.88;;;24.80;52.11
16806;BME280;8520;50.102;20.010;2022-09-03T13:24:38;98530.59;;;24.72;53.02
16806;BME280;8520;50.102;20.010;2022-09-03T13:27:32;98524.34;;;25.04;52.24
16806;BME280;8520;50.102;20.010;2022-09-03T13:30:30;98522.19;;;25.42;51.47
16806;BME280;8520;50.102;20.010;2022-09-03T13:33:25;98522.19;;;25.42;52.08
16806;BME280;8520;50.102;20.010;2022-09-03T13:36:19;98521.50;;;24.96;51.53
16806;BME280;8520;50.102;20.010;2022-09-03T13:39:17;98525.88;;;24.66;52.72
16806;BME280;8520;50.102;20.010;2022-09-03T13:42:12;98525.50;;;24.70;52.88
16806;BME280;8520;50.102;20.010;2022-09-03T13:45:12;98529.78;;;25.09;52.70
16806;BME280;8520;50.102;20.010;2022-09-03T13:48:08;98516.84;;;25.06;52.55
16806;BME280;8520;50.102;20.010;2022-09-03T13:51:18;98515.69;;;25.09;51.23
16806;BME280;8520;50.102;20.010;2022-09-03T13:54:12;98514.03;;;24.83;52.48
16806;BME280;8520;50.102;20.010;2022-09-03T13:57:32;98516.84;;;24.91;51.71
16806;BME280;8520;50.102;20.010;2022-09-03T14:00:26;98512.94;;;24.56;52.25
16806;BME280;8520;50.102;20.010;2022-09-03T14:03:24;98514.44;;;24.64;53.40
16806;BME280;8520;50.102;20.010;2022-09-03T14:06:27;98514.06;;;24.60;52.98
16806;BME280;8520;50.102;20.010;2022-09-03T14:09:26;98509.38;;;24.55;52.95
16806;BME280;8520;50.102;20.010;2022-09-03T14:12:27;98513.66;;;24.26;53.33
16806;BME280;8520;50.102;20.010;2022-09-03T14:15:21;98514.75;;;24.00;54.09
16806;BME280;8520;50.102;20.010;2022-09-03T14:18:15;98514.22;;;24.17;53.61
16806;BME280;8520;50.102;20.010;2022-09-03T14:21:15;98514.75;;;24.23;52.72
16806;BME280;8520;50.102;20.010;2022-09-03T14:24:13;98526.06;;;24.38;53.47
16806;BME280;8520;50.102;20.010;2022-09-03T14:27:02;98509.75;;;24.52;53.57
16806;BME280;8520;50.102;20.010;2022-09-03T14:29:53;98520.28;;;24.51;53.93
16806;BME280;8520;50.102;20.010;2022-09-03T14:32:49;98521.34;;;24.25;53.10
16806;BME280;8520;50.102;20.010;2022-09-03T14:35:52;98508.03;;;24.41;54.08
16806;BME280;8520;50.102;20.010;2022-09-03T14:39:10;98513.50;;;24.47;53.68
16806;BME280;8520;50.102;20.010;2022-09-03T14:42:35;98505.06;;;24.54;53.70
16806;BME280;8520;50.102;20.010;2022-09-03T14:49:09;98511.59;;;24.19;53.84
16806;BME280;8520;50.102;20.010;2022-09-03T14:52:11;98515.00;;;24.40;53.13
16806;BME280;8520;50.102;20.010;2022-09-03T14:55:26;98518.28;;;23.93;54.21
16806;BME280;8520;50.102;20.010;2022-09-03T14:58:22;98512.50;;;23.98;53.98
16806;BME280;8520;50.102;20.010;2022-09-03T15:01:16;98514.38;;;24.03;54.02
16806;BME280;8520;50.102;20.010;2022-09-03T15:04:28;98516.22;;;23.86;54.40
16806;BME280;8520;50.102;20.010;2022-09-03T15:07:27;98517.16;;;23.80;54.87
16806;BME280;8520;50.102;20.010;2022-09-03T15:10:28;98517.50;;;23.69;55.09
16806;BME280;8520;50.102;20.010;2022-09-03T15:13:24;98508.09;;;23.59;54.81
16806;BME280;8520;50.102;20.010;2022-09-03T15:16:32;98509.03;;;23.62;55.82
16806;BME280;8520;50.102;20.010;2022-09-03T15:19:42;98513.44;;;23.49;55.81
16806;BME280;8520;50.102;20.010;2022-09-03T15:22:53;98500.91;;;23.50;55.23
16806;BME280;8520;50.102;20.010;2022-09-03T15:26:02;98503.25;;;23.31;55.39
16806;BME280;8520;50.102;20.010;2022-09-03T15:29:03;98503.03;;;23.21;55.38
16806;BME280;8520;50.102;20.010;2022-09-03T15:32:01;98504.06;;;23.03;56.13